Flight Track Log - Related Links

Times and Time Zones

All times are in EDT time to prevent confusion due to time zone crossing. See the DAL2214 flight status page for this flight to view local times or setup timezone preferences in your user account.

Time Position Orientation Groundspeed Altitude Reporting Facility
EDT Latitude Longitude Course Direction KTS MPH feet Rate Location/Type
Wed 09:02:12 PM 42.2075 -83.3503 180° South 142 163 1,400  Level Cleveland Center
Wed 09:02:30 PM 42.1944 -83.3542 192° South 171 197 2,000 2,259 Climbing Cleveland Center
Wed 09:03:37 PM 42.1244 -83.3642 186° South 261 300 4,600 2,388 Climbing Cleveland Center
Wed 09:04:13 PM 42.0939 -83.3700 188° South 253 291 6,100 3,155 Climbing Cleveland Center
Wed 09:05:00 PM 41.8746 -83.4009 180° South  Level Estimated
Wed 09:05:14 PM 42.0186 -83.3814 186° South 265 305 9,700  Level Cleveland Center
Wed 09:06:00 PM 41.7620 -83.4166 180° South  Level Estimated
Wed 09:06:16 PM 41.9194 -83.3700 175° South 303 349 11,700  Level Cleveland Center
Wed 09:07:00 PM 41.6493 -83.4323 180° South  Level Estimated
Wed 09:07:17 PM 41.8275 -83.3603 175° South 369 425 13,600  Level Cleveland Center
Wed 09:08:19 PM 41.6994 -83.3703 183° South 386 444 17,200 3,171 Climbing Cleveland Center
Wed 09:09:20 PM 41.5978 -83.4206 200° South 388 447 20,100 2,488 Climbing Cleveland Center
Wed 09:10:22 PM 41.4931 -83.4700 199° South 397 457 22,300 2,341 Climbing Cleveland Center
Wed 09:11:23 PM 41.3853 -83.5219 200° South 409 471 24,900 1,805 Climbing Cleveland Center
Wed 09:12:25 PM 41.2811 -83.5728 200° South 404 465 26,000 1,268 Climbing Cleveland Center
Wed 09:13:26 PM 41.1778 -83.6217 200° South 399 459 27,500 1,659 Climbing Cleveland Center
Wed 09:14:28 PM 41.0781 -83.6694 200° South 399 459 29,400 1,756 Climbing Cleveland Center
Wed 09:15:29 PM 40.9558 -83.7275 200° South 395 455 31,100 1,610 Climbing Cleveland Center
Wed 09:16:31 PM 40.8539 -83.7769 200° South 394 453 32,700 1,122 Climbing Cleveland Center
Wed 09:17:32 PM 40.7544 -83.8233 199° South 384 442 33,400 732 Climbing Cleveland Center
Wed 09:18:34 PM 40.6517 -83.8728 200° South 389 448 34,200 878 Climbing Cleveland Center
Wed 09:19:35 PM 40.5511 -83.9206 200° South 389 448 35,200 711 Climbing Cleveland Center
Wed 09:20:49 PM 40.4308 -83.9761 199° South 388 447 35,800 444 Climbing Indianapolis Center
Wed 09:21:50 PM 40.3303 -84.0236 200° South 387 445 36,200 390 Climbing Indianapolis Center
Wed 09:22:52 PM 40.2011 -84.0589 192° South 405 466 36,600 390 Climbing Indianapolis Center
Wed 09:23:53 PM 40.0919 -84.0761 187° South 399 459 37,000 197 Climbing Indianapolis Center
Wed 09:24:54 PM 39.9822 -84.0950 188° South 399 459 37,000  Level Indianapolis Center
Wed 09:25:56 PM 39.8747 -84.1131 187° South 399 459 37,000  Level Indianapolis Center
Wed 09:26:57 PM 39.7667 -84.1300 187° South 398 458 37,000  Level Indianapolis Center
Wed 09:27:59 PM 39.6581 -84.1450 186° South 397 457 37,000  Level Indianapolis Center
Wed 09:29:00 PM 39.5192 -84.0900 163° South 436 502 37,000  Level Indianapolis Center
Wed 09:30:02 PM 39.4042 -84.0342 159° South 444 511 37,000  Level Indianapolis Center
Wed 09:31:03 PM 39.2889 -83.9778 159° South 444 511 37,000  Level Indianapolis Center
Wed 09:32:04 PM 39.1744 -83.9236 160° South 443 510 37,000  Level Indianapolis Center
Wed 09:33:06 PM 39.0581 -83.8681 160° South 444 511 37,000  Level Indianapolis Center
Wed 09:34:07 PM 38.9428 -83.8122 159° South 444 511 37,000  Level Indianapolis Center
Wed 09:35:08 PM 38.8272 -83.7575 160° South 444 511 37,000  Level Indianapolis Center
Wed 09:36:10 PM 38.7117 -83.7053 161° South 444 511 37,000  Level Indianapolis Center
Wed 09:37:11 PM 38.5703 -83.6378 160° South 453 521 37,000  Level Indianapolis Center
Wed 09:38:12 PM 38.4514 -83.5814 160° South 454 522 37,000  Level Indianapolis Center
Wed 09:39:14 PM 38.3325 -83.5247 159° South 454 522 37,000  Level Indianapolis Center
Wed 09:40:15 PM 38.2144 -83.4700 160° South 454 522 37,000  Level Indianapolis Center
Wed 09:41:16 PM 38.0953 -83.4144 160° South 453 521 37,000  Level Indianapolis Center
Wed 09:42:18 PM 37.9778 -83.3589 160° South 453 521 37,000  Level Indianapolis Center
Wed 09:43:19 PM 37.8597 -83.3050 160° South 452 520 37,000  Level Indianapolis Center
Wed 09:44:20 PM 37.7411 -83.2517 160° South 452 520 37,000  Level Indianapolis Center
Wed 09:45:22 PM 37.6017 -83.1864 160° South 454 522 37,000  Level Indianapolis Center
Wed 09:46:23 PM 37.4833 -83.1325 160° South 454 522 37,000  Level Indianapolis Center
Wed 09:47:24 PM 37.3642 -83.0775 160° South 454 522 37,000  Level Indianapolis Center
Wed 09:48:26 PM 37.2428 -83.0269 162° South 451 519 37,000  Level Indianapolis Center
Wed 09:49:27 PM 37.1389 -83.0300 181° South 396 456 37,000  Level Indianapolis Center
Wed 09:50:28 PM 37.0322 -83.0325 181° South 388 447 37,000  Level Indianapolis Center
Wed 09:51:30 PM 36.9056 -83.0339 181° South 392 451 37,000  Level Indianapolis Center
Wed 09:52:31 PM 36.7975 -83.0356 181° South 393 452 37,000 -98 Level Indianapolis Center
Wed 09:53:32 PM 36.6881 -83.0361 180° South 393 452 36,800 -585 Descending Indianapolis Center
Wed 09:54:34 PM 36.5800 -83.0375 181° South 393 452 35,800 -878 Descending Indianapolis Center
Wed 09:55:35 PM 36.4689 -83.0394 181° South 395 455 35,000 -444 Descending Indianapolis Center
Wed 09:56:22 PM 36.3692 -83.0433 182° South 402 463 35,000  Level Atlanta Center
Wed 09:57:22 PM 36.2567 -83.0447 181° South 402 463 35,000  Level Atlanta Center
Wed 09:58:22 PM 36.1439 -83.0464 181° South 407 468 35,000  Level Atlanta Center
Wed 09:59:22 PM 36.0292 -83.0478 181° South 407 468 35,000  Level Atlanta Center
Wed 10:00:22 PM 35.9167 -83.0517 182° South 407 468 35,000  Level Atlanta Center
Wed 10:01:22 PM 35.8125 -83.0758 191° South 396 456 35,000  Level Atlanta Center
Wed 10:02:22 PM 35.7169 -83.1206 201° Southwest 374 430 35,000 -50 Level Atlanta Center
Wed 10:03:22 PM 35.6192 -83.1650 200° South 374 430 34,900 -450 Descending Atlanta Center
Wed 10:04:22 PM 35.5214 -83.2094 200° South 374 430 34,100 -700 Descending Atlanta Center
Wed 10:05:22 PM 35.4383 -83.2511 202° Southwest 374 430 33,500 -550 Descending Atlanta Center
Wed 10:06:22 PM 35.3342 -83.2953 199° South 381 438 33,000 -450 Descending Atlanta Center
Wed 10:07:22 PM 35.2322 -83.3419 201° Southwest 392 451 32,600 -500 Descending Atlanta Center
Wed 10:08:22 PM 35.1242 -83.3964 202° Southwest 392 451 32,000 -300 Descending Atlanta Center
Wed 10:09:22 PM 35.0219 -83.4378 198° South 392 451 32,000  Level Atlanta Center
Wed 10:10:22 PM 34.9200 -83.4839 200° South 392 451 32,000 -800 Level Atlanta Center
Wed 10:11:22 PM 34.8181 -83.5278 199° South 392 451 30,400 -1,800 Descending Atlanta Center
Wed 10:12:22 PM 34.7097 -83.5739 199° South 398 458 28,400 -2,600 Descending Atlanta Center
Wed 10:13:22 PM 34.6053 -83.6172 199° South 403 464 25,200 -2,900 Descending Atlanta Center
Wed 10:14:22 PM 34.5178 -83.6556 200° South 403 464 22,600 -2,800 Descending Atlanta Center
Wed 10:15:22 PM 34.4178 -83.7014 201° Southwest 389 448 19,600 -2,900 Descending Atlanta Center
Wed 10:16:22 PM 34.3219 -83.7419 199° South 376 433 16,800 -2,800 Descending Atlanta Center
Wed 10:17:22 PM 34.2303 -83.7850 201° Southwest 364 419 14,000 -2,400 Descending Atlanta Center
Wed 10:18:22 PM 34.1383 -83.8231 199° South 357 411 12,000 -1,150 Descending Atlanta Center
Wed 10:19:22 PM 34.0550 -83.8783 209° Southwest 345 397 11,700 -950 Descending Atlanta Center
Wed 10:20:22 PM 33.9694 -83.9461 213° Southwest 340 391 10,100 -903 Descending Atlanta Center
Wed 10:21:15 PM 33.9000 -84.0000 213° Southwest 327 376 10,000 -319 Descending Atlanta TRACON
Wed 10:22:15 PM 33.8333 -84.0500 212° Southwest 279 321 9,500 -1,550 Descending Atlanta TRACON
Wed 10:23:15 PM 33.7667 -84.1000 212° Southwest 272 313 6,900 -2,450 Descending Atlanta TRACON
Wed 10:24:15 PM 33.7167 -84.1500 220° Southwest 263 303 4,600 -1,800 Descending Atlanta TRACON
Wed 10:25:15 PM 33.6667 -84.2000 220° Southwest 242 278 3,300 -800 Descending Atlanta TRACON
Wed 10:26:15 PM 33.6500 -84.2667 253° West 192 221 3,000 -450 Descending Atlanta TRACON
Wed 10:27:15 PM 33.6500 -84.3167 270° West 146 168 2,400 -619 Descending Atlanta TRACON
Wed 10:28:21 PM 33.6500 -84.3667 270° West 112 129 1,700 -636 Descending Atlanta TRACON

Login

Don't have an account? Register now (free) for customized features, flight alerts, and more!